createdAt,value
2019-03-06T00:00:33.182Z,4.00
2019-03-06T00:01:33.188Z,4.10
2019-03-06T00:02:33.388Z,4.00
2019-03-06T00:03:33.159Z,4.20
2019-03-06T00:04:33.157Z,4.00
2019-03-06T00:05:33.175Z,3.60
2019-03-06T00:06:33.140Z,4.50
2019-03-06T00:07:33.144Z,3.20
2019-03-06T00:08:33.130Z,2.90
2019-03-06T00:09:33.331Z,3.50
2019-03-06T00:10:33.127Z,3.00
2019-03-06T00:11:33.110Z,3.60
2019-03-06T00:12:33.111Z,4.50
2019-03-06T00:13:33.094Z,4.90
2019-03-06T00:14:33.099Z,3.00
2019-03-06T00:15:33.092Z,3.80
2019-03-06T00:16:33.286Z,3.30
2019-03-06T00:17:33.097Z,3.60
2019-03-06T00:18:33.067Z,4.80
2019-03-06T00:19:33.074Z,4.20
2019-03-06T00:20:33.070Z,3.60
2019-03-06T00:21:33.045Z,4.10
2019-03-06T00:22:33.248Z,2.80
2019-03-06T00:23:33.035Z,4.80
2019-03-06T00:24:33.057Z,3.70
2019-03-06T00:25:33.036Z,4.10
2019-03-06T00:26:33.027Z,3.80
2019-03-06T00:27:33.020Z,3.80
2019-03-06T00:28:33.024Z,5.70
2019-03-06T00:29:33.226Z,3.80
2019-03-06T00:30:33.007Z,3.80
2019-03-06T00:31:32.985Z,4.30
2019-03-06T00:32:32.994Z,4.90
2019-03-06T00:33:32.983Z,5.20
2019-03-06T00:34:33.172Z,4.50
2019-03-06T00:35:32.964Z,5.80
2019-03-06T00:36:32.960Z,4.40
2019-03-06T00:37:32.952Z,5.50
2019-03-06T00:38:33.156Z,4.40
2019-03-06T00:39:32.935Z,6.40
2019-03-06T00:40:32.932Z,6.60
2019-03-06T00:41:33.142Z,5.90
2019-03-06T00:42:32.933Z,5.60
2019-03-06T00:43:32.908Z,4.80
2019-03-06T00:44:32.921Z,6.70
2019-03-06T00:45:32.903Z,4.70
2019-03-06T00:46:32.890Z,5.00
2019-03-06T00:47:32.906Z,4.80
2019-03-06T00:48:32.901Z,5.10
2019-03-06T00:49:32.888Z,4.50
2019-03-06T00:50:32.883Z,5.20
2019-03-06T00:51:33.067Z,4.80
2019-03-06T00:52:32.858Z,5.00
2019-03-06T00:53:32.888Z,5.60
2019-03-06T00:54:33.047Z,5.10
2019-03-06T00:55:32.851Z,6.10
2019-03-06T00:56:32.846Z,6.10
2019-03-06T00:57:32.831Z,5.80
2019-03-06T00:58:32.818Z,5.00
2019-03-06T00:59:32.832Z,6.40
2019-03-06T01:00:32.805Z,5.30
2019-03-06T01:01:32.805Z,5.60
2019-03-06T01:02:32.814Z,5.30
2019-03-06T01:03:32.796Z,5.60
2019-03-06T01:04:32.988Z,6.80
2019-03-06T01:05:32.773Z,6.20
2019-03-06T01:06:32.773Z,7.10
2019-03-06T01:07:32.769Z,6.40
2019-03-06T01:08:32.985Z,6.10
2019-03-06T01:09:32.783Z,6.30
2019-03-06T01:10:32.763Z,7.20
2019-03-06T01:11:32.751Z,6.80
2019-03-06T01:12:32.734Z,8.90
2019-03-06T01:13:32.729Z,6.50
2019-03-06T01:14:32.726Z,9.40
2019-03-06T01:15:32.731Z,7.30
2019-03-06T01:16:32.710Z,7.70
2019-03-06T01:17:32.704Z,7.10
2019-03-06T01:18:32.707Z,7.80
2019-03-06T01:19:32.922Z,8.80
2019-03-06T01:20:32.684Z,6.70
2019-03-06T01:21:32.687Z,7.70
2019-03-06T01:22:32.706Z,7.50
2019-03-06T01:23:32.677Z,7.80
2019-03-06T01:24:32.666Z,8.00
2019-03-06T01:25:32.657Z,7.50
2019-03-06T01:26:32.650Z,9.20
2019-03-06T01:27:32.864Z,7.80
2019-03-06T01:28:32.644Z,8.10
2019-03-06T01:29:32.646Z,7.80
2019-03-06T01:30:32.664Z,10.80
2019-03-06T01:31:32.616Z,9.60
2019-03-06T01:32:32.617Z,8.60
2019-03-06T01:33:32.621Z,8.50
2019-03-06T01:34:32.598Z,9.70
2019-03-06T01:35:32.824Z,8.50
2019-03-06T01:36:32.587Z,9.80
2019-03-06T01:37:32.591Z,8.40
2019-03-06T01:38:32.578Z,8.30
2019-03-06T01:39:32.571Z,8.90
2019-03-06T01:40:32.573Z,10.30
2019-03-06T01:41:32.559Z,8.90
2019-03-06T01:42:32.554Z,8.80
2019-03-06T01:43:32.576Z,10.20
2019-03-06T01:44:32.547Z,8.60
2019-03-06T01:45:32.531Z,8.60
2019-03-06T01:46:32.534Z,10.60
2019-03-06T01:47:32.548Z,12.10
2019-03-06T01:48:32.530Z,10.30
2019-03-06T01:49:32.531Z,12.30
2019-03-06T01:50:32.517Z,9.40
2019-03-06T01:51:32.500Z,9.70
2019-03-06T01:52:32.513Z,9.40
2019-03-06T01:53:32.516Z,10.30
2019-03-06T01:54:32.493Z,10.60
2019-03-06T01:55:32.479Z,10.60
2019-03-06T01:56:32.671Z,10.20
2019-03-06T01:57:32.469Z,10.60
2019-03-06T01:58:32.464Z,10.40
2019-03-06T01:59:32.452Z,10.50
2019-03-06T02:00:32.445Z,11.60
2019-03-06T02:01:32.438Z,11.00
2019-03-06T02:02:32.660Z,10.10
2019-03-06T02:03:32.630Z,10.60
2019-03-06T02:04:32.417Z,11.60
2019-03-06T02:05:32.410Z,11.10
2019-03-06T02:06:32.398Z,10.70
2019-03-06T02:07:32.602Z,10.70
2019-03-06T02:08:32.396Z,9.60
2019-03-06T02:09:32.387Z,12.30
2019-03-06T02:10:32.397Z,11.40
2019-03-06T02:11:32.585Z,10.80
2019-03-06T02:12:32.386Z,11.30
2019-03-06T02:13:32.363Z,11.00
2019-03-06T02:14:32.362Z,11.30
2019-03-06T02:15:32.347Z,11.00
2019-03-06T02:16:32.339Z,11.10
2019-03-06T02:17:32.356Z,11.80
2019-03-06T02:18:32.332Z,12.20
2019-03-06T02:19:32.327Z,11.00
2019-03-06T02:20:32.314Z,11.50
2019-03-06T02:21:32.341Z,12.10
2019-03-06T02:22:32.308Z,12.40
2019-03-06T02:23:32.528Z,12.50
2019-03-06T02:24:32.307Z,12.00
2019-03-06T02:25:32.306Z,11.90
2019-03-06T02:26:32.302Z,12.40
2019-03-06T02:27:32.489Z,12.30
2019-03-06T02:28:32.479Z,12.60
2019-03-06T02:29:32.258Z,12.60
2019-03-06T02:30:32.259Z,12.10
2019-03-06T02:31:32.264Z,13.10
2019-03-06T02:32:32.259Z,12.00
2019-03-06T02:33:32.239Z,12.00
2019-03-06T02:34:32.439Z,14.20
2019-03-06T02:35:32.232Z,13.90
2019-03-06T02:36:32.216Z,12.50
2019-03-06T02:37:32.217Z,12.50
2019-03-06T02:38:32.208Z,12.40
2019-03-06T02:39:32.410Z,12.90
2019-03-06T02:40:32.202Z,14.10
2019-03-06T02:41:32.395Z,12.60
2019-03-06T02:42:32.182Z,13.30
2019-03-06T02:43:32.191Z,13.10
2019-03-06T02:44:32.173Z,14.10
2019-03-06T02:45:32.177Z,14.80
2019-03-06T02:46:32.169Z,12.70
2019-03-06T02:47:32.161Z,12.70
2019-03-06T02:48:32.171Z,12.90
2019-03-06T02:49:32.360Z,12.80
2019-03-06T02:50:32.166Z,13.30
2019-03-06T02:51:32.383Z,13.10
2019-03-06T02:52:32.149Z,13.70
2019-03-06T02:53:32.333Z,15.20
2019-03-06T02:54:32.343Z,14.00
2019-03-06T02:55:32.323Z,15.70
2019-03-06T02:56:32.104Z,14.70
2019-03-06T02:57:32.102Z,14.90
2019-03-06T02:58:32.097Z,15.40
2019-03-06T02:59:32.288Z,13.40
2019-03-06T03:00:32.072Z,13.40
2019-03-06T03:01:32.081Z,15.30
2019-03-06T03:02:32.057Z,14.50
2019-03-06T03:03:32.288Z,14.30
2019-03-06T03:04:32.264Z,13.50
2019-03-06T03:05:32.040Z,13.60
2019-03-06T03:06:32.034Z,13.40
2019-03-06T03:07:32.040Z,14.70
2019-03-06T03:08:32.037Z,13.90
2019-03-06T03:09:32.017Z,13.90
2019-03-06T03:10:32.007Z,16.30
2019-03-06T03:11:32.209Z,14.60
2019-03-06T03:12:32.014Z,14.50
2019-03-06T03:13:31.994Z,15.80
2019-03-06T03:14:31.989Z,14.30
2019-03-06T03:15:31.983Z,13.80
2019-03-06T03:16:31.974Z,13.30
2019-03-06T03:17:31.978Z,13.40
2019-03-06T03:18:31.989Z,13.80
2019-03-06T03:19:31.968Z,13.60
2019-03-06T03:20:31.944Z,13.20
2019-03-06T03:21:31.974Z,13.90
2019-03-06T03:22:31.941Z,15.70
2019-03-06T03:23:31.950Z,14.90
2019-03-06T03:24:32.145Z,14.60
2019-03-06T03:25:31.924Z,13.30
2019-03-06T03:26:31.930Z,14.20
2019-03-06T03:27:31.938Z,13.50
2019-03-06T03:28:31.911Z,13.70
2019-03-06T03:29:31.893Z,14.50
2019-03-06T03:30:31.908Z,13.70
2019-03-06T03:31:32.087Z,14.30
2019-03-06T03:32:31.886Z,13.80
2019-03-06T03:33:31.875Z,14.00
2019-03-06T03:34:31.879Z,13.70
2019-03-06T03:35:32.077Z,14.60
2019-03-06T03:36:32.054Z,15.90
2019-03-06T03:37:32.051Z,14.10
2019-03-06T03:38:31.842Z,14.40
2019-03-06T03:39:32.038Z,15.50
2019-03-06T03:40:31.847Z,14.30
2019-03-06T03:41:31.828Z,15.50
2019-03-06T03:42:31.817Z,14.40
2019-03-06T03:43:31.817Z,12.90
2019-03-06T03:44:31.812Z,15.00
2019-03-06T03:45:31.801Z,15.40
2019-03-06T03:46:31.792Z,14.10
2019-03-06T03:47:31.797Z,15.00
2019-03-06T03:48:31.789Z,14.70
2019-03-06T03:49:31.772Z,14.20
2019-03-06T03:50:31.768Z,15.00
2019-03-06T03:51:31.771Z,14.10
2019-03-06T03:52:31.981Z,15.50
2019-03-06T03:53:31.753Z,14.70
2019-03-06T03:54:31.751Z,14.50
2019-03-06T03:55:31.741Z,13.80
2019-03-06T03:56:31.762Z,15.10
2019-03-06T03:57:31.739Z,15.80
2019-03-06T03:58:31.728Z,13.90
2019-03-06T03:59:31.713Z,15.60
2019-03-06T04:00:31.711Z,13.50
2019-03-06T04:01:31.704Z,15.50
2019-03-06T04:02:31.702Z,13.90
2019-03-06T04:03:31.714Z,14.10
2019-03-06T04:04:31.698Z,16.20
2019-03-06T04:05:31.682Z,13.10
2019-03-06T04:06:31.886Z,13.60
2019-03-06T04:07:31.672Z,13.80
2019-03-06T04:08:31.694Z,15.00
2019-03-06T04:09:31.657Z,15.50
2019-03-06T04:10:31.667Z,15.30
2019-03-06T04:12:34.144Z,14.00
2019-03-06T04:13:31.637Z,14.40
2019-03-06T04:14:31.630Z,15.20
2019-03-06T04:15:31.631Z,15.70
2019-03-06T04:16:31.620Z,14.60
2019-03-06T04:17:31.610Z,15.50
2019-03-06T04:18:31.602Z,14.60
2019-03-06T04:19:31.613Z,14.90
2019-03-06T04:20:31.800Z,15.20
2019-03-06T04:21:31.596Z,13.80
2019-03-06T04:22:31.789Z,14.00
2019-03-06T04:23:31.574Z,14.60
2019-03-06T04:24:31.570Z,14.30
2019-03-06T04:25:31.586Z,14.70
2019-03-06T04:26:31.560Z,14.20
2019-03-06T04:27:31.763Z,14.80
2019-03-06T04:28:31.557Z,16.50
2019-03-06T04:29:31.748Z,14.30
2019-03-06T04:30:31.527Z,14.90
2019-03-06T04:31:31.526Z,16.00
2019-03-06T04:32:31.527Z,15.60
2019-03-06T04:33:31.517Z,14.20
2019-03-06T04:34:31.509Z,14.30
2019-03-06T04:35:31.513Z,15.20
2019-03-06T04:36:31.488Z,14.80
2019-03-06T04:37:31.482Z,14.50
2019-03-06T04:38:31.482Z,14.40
2019-03-06T04:39:31.484Z,14.40
2019-03-06T04:40:31.467Z,16.00
2019-03-06T04:41:31.467Z,13.20
2019-03-06T04:42:31.461Z,13.70
2019-03-06T04:43:31.446Z,13.30
2019-03-06T04:44:31.437Z,15.00
2019-03-06T04:45:31.442Z,12.80
2019-03-06T04:46:31.429Z,14.70
2019-03-06T04:47:31.424Z,13.80
2019-03-06T04:48:31.431Z,14.60
2019-03-06T04:49:31.413Z,14.60
2019-03-06T04:50:31.618Z,14.10
2019-03-06T04:51:31.603Z,13.30
2019-03-06T04:52:31.398Z,15.30
2019-03-06T04:53:31.400Z,13.20
2019-03-06T04:54:31.386Z,12.50
2019-03-06T04:55:31.381Z,14.00
2019-03-06T04:56:31.374Z,12.90
2019-03-06T04:57:31.577Z,12.70
2019-03-06T04:58:31.374Z,12.10
2019-03-06T04:59:31.365Z,14.70
2019-03-06T05:00:31.347Z,12.60
2019-03-06T05:01:31.557Z,15.30
2019-03-06T05:02:31.342Z,12.70
2019-03-06T05:03:31.347Z,13.30
2019-03-06T05:04:31.334Z,13.30
2019-03-06T05:05:31.325Z,13.50
2019-03-06T05:06:31.312Z,15.00
2019-03-06T05:07:31.315Z,12.00
2019-03-06T05:08:31.332Z,14.30
2019-03-06T05:09:31.323Z,13.20
2019-03-06T05:10:31.316Z,12.90
2019-03-06T05:11:31.285Z,12.10
2019-03-06T05:12:31.286Z,11.80
2019-03-06T05:13:31.276Z,13.30
2019-03-06T05:14:31.487Z,13.10
2019-03-06T05:15:31.262Z,11.50
2019-03-06T05:16:31.262Z,11.80
2019-03-06T05:17:31.481Z,13.20
2019-03-06T05:18:31.242Z,11.70
2019-03-06T05:19:31.244Z,12.50
2019-03-06T05:20:31.438Z,12.00
2019-03-06T05:21:31.244Z,11.30
2019-03-06T05:22:31.418Z,14.60
2019-03-06T05:23:31.215Z,11.10
2019-03-06T05:24:31.209Z,11.40
2019-03-06T05:25:31.219Z,13.60
2019-03-06T05:26:31.418Z,12.00
2019-03-06T05:27:31.192Z,12.50
2019-03-06T05:28:31.207Z,10.60
2019-03-06T05:29:31.193Z,11.10
2019-03-06T05:30:31.386Z,11.60
2019-03-06T05:31:31.180Z,11.90
2019-03-06T05:32:31.161Z,12.80
2019-03-06T05:33:31.187Z,11.40
2019-03-06T05:34:31.177Z,12.20
2019-03-06T05:35:31.139Z,11.00
2019-03-06T05:36:31.372Z,12.40
2019-03-06T05:37:31.132Z,11.00
2019-03-06T05:38:31.141Z,10.50
2019-03-06T05:39:31.132Z,12.90
2019-03-06T05:40:31.331Z,11.10
2019-03-06T05:41:31.110Z,11.70
2019-03-06T05:42:31.112Z,12.50
2019-03-06T05:43:31.111Z,12.40
2019-03-06T05:44:31.094Z,10.80
2019-03-06T05:45:31.101Z,11.80
2019-03-06T05:46:31.088Z,11.30
2019-03-06T05:47:31.289Z,9.60
2019-03-06T05:48:31.079Z,9.70
2019-03-06T05:49:31.261Z,12.00
2019-03-06T05:50:31.077Z,9.80
2019-03-06T05:51:31.255Z,11.70
2019-03-06T05:52:31.045Z,9.60
2019-03-06T05:53:31.033Z,12.50
2019-03-06T05:54:31.031Z,10.50
2019-03-06T05:55:31.028Z,11.50
2019-03-06T05:56:31.021Z,10.90
2019-03-06T05:57:31.010Z,14.40
2019-03-06T05:58:31.021Z,10.80
2019-03-06T05:59:31.209Z,9.90
2019-03-06T06:00:31.211Z,9.70
2019-03-06T06:02:31.200Z,12.50
2019-03-06T06:03:30.982Z,11.70
2019-03-06T06:04:30.968Z,11.40
2019-03-06T06:05:31.163Z,10.50
2019-03-06T06:06:30.960Z,9.60
2019-03-06T06:07:31.162Z,12.60
2019-03-06T06:08:31.149Z,12.60
2019-03-06T06:09:30.968Z,13.20
2019-03-06T06:10:31.149Z,12.40
2019-03-06T06:11:30.929Z,11.60
2019-03-06T06:12:30.924Z,11.20
2019-03-06T06:13:31.140Z,10.90
2019-03-06T06:14:30.909Z,9.20
2019-03-06T06:15:30.919Z,10.90
2019-03-06T06:16:31.102Z,12.90
2019-03-06T06:17:30.903Z,11.40
2019-03-06T06:18:30.896Z,12.20
2019-03-06T06:19:30.883Z,14.00
2019-03-06T06:20:30.886Z,16.30
2019-03-06T06:21:30.885Z,11.80
2019-03-06T06:22:30.861Z,12.00
2019-03-06T06:23:30.862Z,12.80
2019-03-06T06:24:30.867Z,11.80
2019-03-06T06:25:30.851Z,10.90
2019-03-06T06:26:30.871Z,11.70
2019-03-06T06:27:30.852Z,11.40
2019-03-06T06:28:30.843Z,11.70
2019-03-06T06:29:31.059Z,12.40
2019-03-06T06:30:31.028Z,13.90
2019-03-06T06:31:30.825Z,9.60
2019-03-06T06:32:32.855Z,13.10
2019-03-06T06:33:30.811Z,12.00
2019-03-06T06:34:30.793Z,11.90
2019-03-06T06:35:31.008Z,11.90
2019-03-06T06:36:30.825Z,14.60
2019-03-06T06:37:30.785Z,13.00
2019-03-06T06:38:30.797Z,11.50
2019-03-06T06:39:30.765Z,12.50
2019-03-06T06:40:30.974Z,12.00
2019-03-06T06:41:30.953Z,14.10
2019-03-06T06:42:30.779Z,11.00
2019-03-06T06:43:30.755Z,13.00
2019-03-06T06:44:30.738Z,15.20
2019-03-06T06:45:30.746Z,10.80
2019-03-06T06:46:30.731Z,10.10
2019-03-06T06:47:30.723Z,12.50
2019-03-06T06:48:30.919Z,12.30
2019-03-06T06:49:30.702Z,14.10
2019-03-06T06:50:30.713Z,11.30
2019-03-06T06:51:30.695Z,15.60
2019-03-06T06:52:30.914Z,14.70
2019-03-06T06:53:30.702Z,11.70
2019-03-06T06:54:30.700Z,13.10
2019-03-06T06:55:30.685Z,12.00
2019-03-06T06:56:30.659Z,12.70
2019-03-06T06:57:30.669Z,13.90
2019-03-06T06:58:31.553Z,11.80
2019-03-06T06:59:30.644Z,10.10
2019-03-06T07:00:30.651Z,11.50
2019-03-06T07:01:30.643Z,10.90
2019-03-06T07:02:30.643Z,12.20
2019-03-06T07:03:30.631Z,12.00
2019-03-06T07:04:30.632Z,13.20
2019-03-06T07:05:30.632Z,12.60
2019-03-06T07:06:30.629Z,12.90
2019-03-06T07:07:30.600Z,12.30
2019-03-06T07:08:30.810Z,12.70
2019-03-06T07:09:30.797Z,12.40
2019-03-06T07:10:30.581Z,11.30
2019-03-06T07:11:30.774Z,13.00
2019-03-06T07:12:30.569Z,11.50
2019-03-06T07:13:30.566Z,12.40
2019-03-06T07:14:30.577Z,12.10
2019-03-06T07:15:30.551Z,10.10
2019-03-06T07:16:30.548Z,11.90
2019-03-06T07:17:30.539Z,11.90
2019-03-06T07:18:30.533Z,11.50
2019-03-06T07:19:30.529Z,11.30
2019-03-06T07:20:30.519Z,10.30
2019-03-06T07:21:30.516Z,12.70
2019-03-06T07:22:30.519Z,10.90
2019-03-06T07:23:30.505Z,11.40
2019-03-06T07:24:30.492Z,10.30
2019-03-06T07:25:30.486Z,10.00
2019-03-06T07:26:30.490Z,9.00
2019-03-06T07:27:30.477Z,10.70
2019-03-06T07:28:30.467Z,10.70
2019-03-06T07:29:30.464Z,9.40
2019-03-06T07:30:30.470Z,9.70
2019-03-06T07:31:30.466Z,9.70
2019-03-06T07:32:30.450Z,10.10
2019-03-06T07:33:30.444Z,10.20
2019-03-06T07:34:30.430Z,8.10
2019-03-06T07:35:30.430Z,9.70
2019-03-06T07:36:30.424Z,10.40
2019-03-06T07:37:30.426Z,9.90
2019-03-06T07:38:30.413Z,8.40
2019-03-06T07:39:32.114Z,11.50
2019-03-06T07:40:30.394Z,9.90
2019-03-06T07:41:30.409Z,9.10
2019-03-06T07:42:30.383Z,8.80
2019-03-06T07:43:30.407Z,9.80
2019-03-06T07:44:30.745Z,10.10
2019-03-06T07:45:30.377Z,9.60
2019-03-06T07:46:30.367Z,9.20
2019-03-06T07:47:30.362Z,8.70
2019-03-06T07:48:30.363Z,7.90
2019-03-06T07:49:30.347Z,9.20
2019-03-06T07:50:30.362Z,7.20
2019-03-06T07:51:31.925Z,9.10
2019-03-06T07:52:30.349Z,8.00
2019-03-06T07:53:30.351Z,7.70
2019-03-06T07:54:30.347Z,7.70
2019-03-06T07:55:30.324Z,7.50
2019-03-06T07:56:30.312Z,7.30
2019-03-06T07:57:30.306Z,7.20
2019-03-06T07:58:30.304Z,8.10
2019-03-06T07:59:30.289Z,7.20
2019-03-06T08:00:30.285Z,7.40
2019-03-06T08:01:30.279Z,7.40
2019-03-06T08:02:30.930Z,7.70
2019-03-06T08:03:30.284Z,6.10
2019-03-06T08:04:30.262Z,9.30
2019-03-06T08:05:30.273Z,8.60
2019-03-06T08:06:30.244Z,8.10
2019-03-06T08:07:30.245Z,8.20
2019-03-06T08:08:30.259Z,6.30
2019-03-06T08:09:30.233Z,7.10
2019-03-06T08:10:30.226Z,6.50
2019-03-06T08:11:30.224Z,8.40
2019-03-06T08:12:30.415Z,6.40
2019-03-06T08:13:30.207Z,6.20
2019-03-06T08:14:30.226Z,7.80
2019-03-06T08:15:30.225Z,6.00
2019-03-06T08:16:30.191Z,6.60
2019-03-06T08:17:30.188Z,6.40
2019-03-06T08:18:30.180Z,6.00
2019-03-06T08:19:30.183Z,6.20
2019-03-06T08:20:30.192Z,7.90
2019-03-06T08:21:30.179Z,5.20
2019-03-06T08:22:30.371Z,6.70
2019-03-06T08:23:30.148Z,6.30
2019-03-06T08:24:30.794Z,6.50
2019-03-06T08:25:30.141Z,6.10
2019-03-06T08:26:30.351Z,6.60
2019-03-06T08:27:30.150Z,5.70
2019-03-06T08:28:30.122Z,5.40
2019-03-06T08:29:30.122Z,4.40
2019-03-06T08:30:30.109Z,5.50
2019-03-06T08:31:30.318Z,4.40
2019-03-06T08:32:30.097Z,6.70
2019-03-06T08:33:30.100Z,5.20
2019-03-06T08:34:30.091Z,5.70
2019-03-06T08:35:30.094Z,5.80
2019-03-06T08:36:30.288Z,6.30
2019-03-06T08:37:30.077Z,4.40
2019-03-06T08:38:30.307Z,5.10
2019-03-06T08:39:30.063Z,4.20
2019-03-06T08:40:30.273Z,4.60
2019-03-06T08:41:30.061Z,5.10
2019-03-06T08:42:30.325Z,5.30
2019-03-06T08:43:30.036Z,4.80
2019-03-06T08:44:30.034Z,5.20
2019-03-06T08:45:30.051Z,5.70
2019-03-06T08:46:30.036Z,5.30
2019-03-06T08:47:30.024Z,5.50
2019-03-06T08:48:30.230Z,5.00
2019-03-06T08:49:30.013Z,3.60
2019-03-06T08:50:30.020Z,5.20
2019-03-06T08:51:30.011Z,4.60
2019-03-06T08:52:30.004Z,3.50
2019-03-06T08:53:29.995Z,4.30
2019-03-06T08:54:30.009Z,4.80
2019-03-06T08:55:30.189Z,3.50
2019-03-06T08:56:29.971Z,4.80
2019-03-06T08:57:29.970Z,5.80
2019-03-06T08:58:29.955Z,3.70
2019-03-06T08:59:29.976Z,4.20
2019-03-06T09:00:30.607Z,4.60
2019-03-06T09:01:29.953Z,4.00
2019-03-06T09:02:29.935Z,2.90
2019-03-06T09:03:29.935Z,2.70
2019-03-06T09:04:29.926Z,4.30
2019-03-06T09:05:31.059Z,3.70
2019-03-06T09:06:30.133Z,3.20
2019-03-06T09:07:29.912Z,3.90
2019-03-06T09:08:29.916Z,4.80
2019-03-06T09:09:29.915Z,4.30
2019-03-06T09:10:29.904Z,4.00
2019-03-06T09:11:30.108Z,4.50
2019-03-06T09:12:29.887Z,5.70
2019-03-06T09:13:29.882Z,4.30
2019-03-06T09:14:29.879Z,4.30
2019-03-06T09:15:29.873Z,4.80
2019-03-06T09:16:29.865Z,3.90
2019-03-06T09:17:29.866Z,3.20
2019-03-06T09:18:30.063Z,4.00
2019-03-06T09:19:30.052Z,3.30
2019-03-06T09:20:36.139Z,4.40
2019-03-06T09:21:29.841Z,3.50
2019-03-06T09:22:29.830Z,4.20
2019-03-06T09:23:30.044Z,4.50
2019-03-06T09:24:29.851Z,5.10
2019-03-06T09:25:30.022Z,4.10
2019-03-06T09:26:29.825Z,2.90
2019-03-06T09:27:29.807Z,2.60
2019-03-06T09:28:30.042Z,4.80
2019-03-06T09:29:29.807Z,3.40
2019-03-06T09:30:30.031Z,2.70
2019-03-06T09:31:29.804Z,3.00
2019-03-06T09:32:29.796Z,1.80
2019-03-06T09:33:29.784Z,1.80
2019-03-06T09:34:29.796Z,2.10
2019-03-06T09:35:29.783Z,3.30
2019-03-06T09:36:29.767Z,2.20
2019-03-06T09:37:29.764Z,2.20
2019-03-06T09:38:29.952Z,2.50
2019-03-06T09:39:29.751Z,2.80
2019-03-06T09:40:29.754Z,4.00
2019-03-06T09:41:29.754Z,3.50
2019-03-06T09:42:29.737Z,3.30
2019-03-06T09:43:29.758Z,3.90
2019-03-06T09:44:29.723Z,3.00
2019-03-06T09:45:29.716Z,3.20
2019-03-06T09:46:29.731Z,3.60
2019-03-06T09:47:29.713Z,2.00
2019-03-06T09:48:29.915Z,2.90
2019-03-06T09:49:29.705Z,4.00
2019-03-06T09:50:29.695Z,2.10
2019-03-06T09:51:29.704Z,3.30
2019-03-06T09:52:29.695Z,3.10
2019-03-06T09:53:29.688Z,2.50
2019-03-06T09:54:29.689Z,5.10
2019-03-06T09:55:29.675Z,2.10
2019-03-06T09:56:29.680Z,4.10
2019-03-06T09:57:29.670Z,2.20
2019-03-06T09:58:29.652Z,3.60
2019-03-06T09:59:29.666Z,5.90
2019-03-06T10:00:29.861Z,2.80
2019-03-06T10:01:29.653Z,2.70
2019-03-06T10:02:29.851Z,3.30
2019-03-06T10:03:29.633Z,2.30
2019-03-06T10:04:29.633Z,2.70
2019-03-06T10:05:29.623Z,2.30
2019-03-06T10:06:29.617Z,3.30
2019-03-06T10:07:29.630Z,2.70
2019-03-06T10:08:29.605Z,2.40
2019-03-06T10:09:29.614Z,3.30
2019-03-06T10:10:29.607Z,2.50
2019-03-06T10:11:29.604Z,5.50
2019-03-06T10:12:29.811Z,1.90
2019-03-06T10:13:29.593Z,1.90
2019-03-06T10:14:29.595Z,3.80
2019-03-06T10:15:29.586Z,4.90
2019-03-06T10:16:29.567Z,2.00
2019-03-06T10:17:30.326Z,4.00
2019-03-06T10:18:29.564Z,3.30
2019-03-06T10:19:29.790Z,2.40
2019-03-06T10:20:29.592Z,2.00
2019-03-06T10:21:29.548Z,3.40
2019-03-06T10:22:29.539Z,3.10
2019-03-06T10:23:29.548Z,1.70
2019-03-06T10:24:29.763Z,2.20
2019-03-06T10:25:30.754Z,2.50
2019-03-06T10:26:29.518Z,2.90
2019-03-06T10:27:29.541Z,3.60
2019-03-06T10:28:29.718Z,2.10
2019-03-06T10:29:29.727Z,1.60
2019-03-06T10:30:29.709Z,1.50
2019-03-06T10:31:29.510Z,2.50
2019-03-06T10:32:29.697Z,2.90
2019-03-06T10:33:29.502Z,2.90
2019-03-06T10:34:29.706Z,1.90
2019-03-06T10:35:29.490Z,2.50
2019-03-06T10:36:29.481Z,2.40
2019-03-06T10:37:29.475Z,1.90
2019-03-06T10:38:29.479Z,2.70
2019-03-06T10:39:29.487Z,2.40
2019-03-06T10:40:29.455Z,1.40
2019-03-06T10:41:29.461Z,3.00
2019-03-06T10:42:29.457Z,3.50
2019-03-06T10:43:29.449Z,3.30
2019-03-06T10:44:30.009Z,1.60
2019-03-06T10:45:29.460Z,2.30
2019-03-06T10:46:29.432Z,3.30
2019-03-06T10:47:29.426Z,3.10
2019-03-06T10:48:29.435Z,1.90
2019-03-06T10:49:29.429Z,1.80
2019-03-06T10:50:30.514Z,2.40
2019-03-06T10:51:31.010Z,2.70
2019-03-06T10:52:29.408Z,3.90
2019-03-06T10:53:29.627Z,2.80
2019-03-06T10:54:29.409Z,3.00
2019-03-06T10:55:29.395Z,3.90
2019-03-06T10:56:29.389Z,2.40
2019-03-06T10:57:29.417Z,3.40
2019-03-06T10:58:29.387Z,2.60
2019-03-06T10:59:29.385Z,2.80
2019-03-06T11:00:29.371Z,2.50
2019-03-06T11:01:29.393Z,2.80
2019-03-06T11:02:29.365Z,3.00
2019-03-06T11:03:29.370Z,2.20
2019-03-06T11:04:29.354Z,3.90
2019-03-06T11:05:29.349Z,4.00
2019-03-06T11:06:29.351Z,4.30
2019-03-06T11:07:29.352Z,2.40
2019-03-06T11:08:29.353Z,2.30
2019-03-06T11:09:29.345Z,3.80
2019-03-06T11:10:29.329Z,2.50
2019-03-06T11:11:29.360Z,3.30
2019-03-06T11:12:29.335Z,2.30
2019-03-06T11:13:29.337Z,2.30
2019-03-06T11:14:29.345Z,2.90
2019-03-06T11:15:29.314Z,2.80
2019-03-06T11:16:30.126Z,2.70
2019-03-06T11:17:29.300Z,3.10
2019-03-06T11:18:29.501Z,2.20
2019-03-06T11:19:29.304Z,3.10
2019-03-06T11:20:29.297Z,3.80
2019-03-06T11:21:29.283Z,2.50
2019-03-06T11:22:29.295Z,1.80
2019-03-06T11:23:29.300Z,2.70
2019-03-06T11:24:29.323Z,2.10
2019-03-06T11:25:29.261Z,3.00
2019-03-06T11:26:29.273Z,2.50
2019-03-06T11:27:29.309Z,2.30
2019-03-06T11:28:29.260Z,2.00
2019-03-06T11:29:29.254Z,2.80
2019-03-06T11:30:29.451Z,3.20
2019-03-06T11:31:29.239Z,2.10
2019-03-06T11:32:29.455Z,2.10
2019-03-06T11:33:29.280Z,2.70
2019-03-06T11:34:29.232Z,2.70
2019-03-06T11:35:29.221Z,3.30
2019-03-06T11:36:29.232Z,3.70
2019-03-06T11:37:29.234Z,3.70
2019-03-06T11:38:29.218Z,3.70
2019-03-06T11:39:29.221Z,2.70
2019-03-06T11:40:29.206Z,3.30
2019-03-06T11:41:29.204Z,2.50
2019-03-06T11:42:29.209Z,4.00
2019-03-06T11:43:29.199Z,3.70
2019-03-06T11:44:29.194Z,2.50
2019-03-06T11:45:29.201Z,2.20
2019-03-06T11:46:29.192Z,2.90
2019-03-06T11:47:29.179Z,4.10
2019-03-06T11:48:29.200Z,2.30
2019-03-06T11:49:29.171Z,2.10
2019-03-06T11:50:29.163Z,3.10
2019-03-06T11:51:29.170Z,2.70
2019-03-06T11:52:29.168Z,4.10
2019-03-06T11:53:29.150Z,2.60
2019-03-06T11:54:29.143Z,3.40
2019-03-06T11:55:29.144Z,2.70
2019-03-06T11:56:29.369Z,2.70
2019-03-06T11:57:29.149Z,3.30
2019-03-06T11:58:29.135Z,3.00
2019-03-06T11:59:29.138Z,1.80
2019-03-06T12:00:29.133Z,2.60
2019-03-06T12:01:29.113Z,2.00
2019-03-06T12:02:29.108Z,2.90
2019-03-06T12:03:29.117Z,2.70
2019-03-06T12:04:29.122Z,2.80
2019-03-06T12:05:29.163Z,4.60
2019-03-06T12:06:29.120Z,2.00
2019-03-06T12:07:29.121Z,2.20
2019-03-06T12:08:29.119Z,2.40
2019-03-06T12:09:29.101Z,2.80
2019-03-06T12:10:29.131Z,2.50
2019-03-06T12:11:29.106Z,2.90
2019-03-06T12:12:29.108Z,3.40
2019-03-06T12:13:29.084Z,2.10
2019-03-06T12:14:29.082Z,2.50
2019-03-06T12:15:29.072Z,2.90
2019-03-06T12:16:29.093Z,3.90
2019-03-06T12:17:29.092Z,4.50
2019-03-06T12:18:29.052Z,5.30
2019-03-06T12:19:29.055Z,2.20
2019-03-06T12:20:29.055Z,2.90
2019-03-06T12:21:29.044Z,5.10
2019-03-06T12:22:29.040Z,3.60
2019-03-06T12:23:29.254Z,3.30
2019-03-06T12:24:29.039Z,3.20
2019-03-06T12:25:29.025Z,2.80
2019-03-06T12:26:29.040Z,2.60
2019-03-06T12:27:29.034Z,3.90
2019-03-06T12:28:29.008Z,3.00
2019-03-06T12:29:29.215Z,2.90
2019-03-06T12:30:29.009Z,2.00
2019-03-06T12:31:29.007Z,3.30
2019-03-06T12:32:28.993Z,3.80
2019-03-06T12:33:28.991Z,2.40
2019-03-06T12:34:29.026Z,2.90
2019-03-06T12:35:29.005Z,2.80
2019-03-06T12:36:28.983Z,2.50
2019-03-06T12:37:29.021Z,2.20
2019-03-06T12:38:28.997Z,3.70
2019-03-06T12:39:28.958Z,1.70
2019-03-06T12:40:28.961Z,3.00
2019-03-06T12:41:28.956Z,2.50
2019-03-06T12:42:28.949Z,2.20
2019-03-06T12:43:28.950Z,2.60
2019-03-06T12:44:28.950Z,2.40
2019-03-06T12:45:28.940Z,2.10
2019-03-06T12:46:28.932Z,2.40
2019-03-06T12:47:28.935Z,4.10
2019-03-06T12:48:28.936Z,4.00
2019-03-06T12:49:28.932Z,3.10
2019-03-06T12:50:28.931Z,6.30
2019-03-06T12:51:28.927Z,2.20
2019-03-06T12:52:30.850Z,1.70
2019-03-06T12:53:28.936Z,2.30
2019-03-06T12:54:28.901Z,2.60
2019-03-06T12:55:28.909Z,2.90
2019-03-06T12:56:28.899Z,3.60
2019-03-06T12:57:28.935Z,1.70
2019-03-06T12:58:29.096Z,2.20
2019-03-06T12:59:28.910Z,2.40
2019-03-06T13:00:28.872Z,3.40
2019-03-06T13:01:28.872Z,2.60
2019-03-06T13:02:28.871Z,2.20
2019-03-06T13:03:28.859Z,2.90
2019-03-06T13:04:28.867Z,3.80
2019-03-06T13:05:28.858Z,2.90
2019-03-06T13:06:28.864Z,4.30
2019-03-06T13:07:28.847Z,3.40
2019-03-06T13:08:28.854Z,5.30
2019-03-06T13:09:28.846Z,3.20